createdAt,value
2018-01-03T00:00:07.665Z,1024.35
2018-01-03T00:01:07.652Z,1024.32
2018-01-03T00:02:07.639Z,1024.26
2018-01-03T00:03:07.623Z,1024.26
2018-01-03T00:04:07.606Z,1024.22
2018-01-03T00:05:07.593Z,1024.17
2018-01-03T00:06:07.576Z,1024.15
2018-01-03T00:07:07.567Z,1024.1
2018-01-03T00:08:07.549Z,1024.04
2018-01-03T00:09:07.531Z,1024.02
2018-01-03T00:10:07.520Z,1023.97
2018-01-03T00:11:07.509Z,1023.99
2018-01-03T00:12:07.490Z,1023.95
2018-01-03T00:13:07.472Z,1023.92
2018-01-03T00:14:07.468Z,1023.84
2018-01-03T00:15:07.444Z,1023.81
2018-01-03T00:16:07.431Z,1023.77
2018-01-03T00:17:07.412Z,1023.73
2018-01-03T00:18:07.398Z,1023.71
2018-01-03T00:19:07.390Z,1023.66
2018-01-03T00:20:07.368Z,1023.56
2018-01-03T00:21:07.353Z,1023.5
2018-01-03T00:22:07.338Z,1023.43
2018-01-03T00:23:07.323Z,1023.45
2018-01-03T00:24:07.308Z,1023.4
2018-01-03T00:25:07.293Z,1023.36
2018-01-03T00:26:07.286Z,1023.28
2018-01-03T00:27:07.263Z,1023.26
2018-01-03T00:28:07.249Z,1023.27
2018-01-03T00:29:07.237Z,1023.19
2018-01-03T00:30:07.219Z,1023.19
2018-01-03T00:31:07.203Z,1023.14
2018-01-03T00:32:07.190Z,1023.11
2018-01-03T00:33:07.176Z,1023.12
2018-01-03T00:34:07.170Z,1023.14
2018-01-03T00:35:07.147Z,1023.06
2018-01-03T00:36:07.129Z,1023.09
2018-01-03T00:37:07.118Z,1023.06
2018-01-03T00:38:07.102Z,1023.05
2018-01-03T00:39:07.088Z,1022.98
2018-01-03T00:40:07.082Z,1022.9
2018-01-03T00:41:07.056Z,1022.83
2018-01-03T00:42:07.040Z,1022.77
2018-01-03T00:43:07.032Z,1022.71
2018-01-03T00:44:07.014Z,1022.68
2018-01-03T00:45:06.995Z,1022.67
2018-01-03T00:46:06.980Z,1022.67
2018-01-03T00:47:06.971Z,1022.6
2018-01-03T00:48:06.955Z,1022.58
2018-01-03T00:49:06.983Z,1022.6
2018-01-03T00:50:06.921Z,1022.56
2018-01-03T00:51:06.907Z,1022.52
2018-01-03T00:52:06.894Z,1022.54
2018-01-03T00:53:06.880Z,1022.49
2018-01-03T00:54:06.862Z,1022.47
2018-01-03T00:55:06.847Z,1022.42
2018-01-03T00:56:06.835Z,1022.39
2018-01-03T00:57:06.817Z,1022.4
2018-01-03T00:58:06.806Z,1022.38
2018-01-03T00:59:06.798Z,1022.36
2018-01-03T01:00:06.776Z,1022.39
2018-01-03T01:01:06.761Z,1022.36
2018-01-03T01:02:06.744Z,1022.3
2018-01-03T01:03:06.729Z,1022.28
2018-01-03T01:04:06.719Z,1022.24
2018-01-03T01:05:06.703Z,1022.24
2018-01-03T01:06:06.686Z,1022.2
2018-01-03T01:07:06.673Z,1022.19
2018-01-03T01:08:06.659Z,1022.17
2018-01-03T01:09:06.644Z,1022.12
2018-01-03T01:10:06.627Z,1022.14
2018-01-03T01:11:06.616Z,1022.15
2018-01-03T01:12:06.596Z,1022.17
2018-01-03T01:13:06.585Z,1022.15
2018-01-03T01:14:06.566Z,1022.16
2018-01-03T01:15:06.554Z,1022.12
2018-01-03T01:16:06.537Z,1022.12
2018-01-03T01:17:06.527Z,1022.11
2018-01-03T01:18:06.510Z,1022.05
2018-01-03T01:19:06.496Z,1022.02
2018-01-03T01:20:06.481Z,1021.96
2018-01-03T01:21:06.463Z,1021.93
2018-01-03T01:22:06.451Z,1021.87
2018-01-03T01:23:06.434Z,1021.84
2018-01-03T01:24:06.421Z,1021.84
2018-01-03T01:25:06.411Z,1021.81
2018-01-03T01:26:06.392Z,1021.77
2018-01-03T01:27:06.374Z,1021.78
2018-01-03T01:28:06.362Z,1021.72
2018-01-03T01:29:06.345Z,1021.68
2018-01-03T01:30:06.333Z,1021.7
2018-01-03T01:31:06.314Z,1021.61
2018-01-03T01:32:06.303Z,1021.59
2018-01-03T01:33:06.290Z,1021.56
2018-01-03T01:34:06.269Z,1021.53
2018-01-03T01:35:06.256Z,1021.49
2018-01-03T01:36:06.239Z,1021.43
2018-01-03T01:37:06.227Z,1021.42
2018-01-03T01:38:06.215Z,1021.38
2018-01-03T01:39:06.197Z,1021.29
2018-01-03T01:40:06.182Z,1021.3
2018-01-03T01:41:06.165Z,1021.28
2018-01-03T01:42:06.150Z,1021.19
2018-01-03T01:43:06.135Z,1021.22
2018-01-03T01:44:06.119Z,1021.14
2018-01-03T01:45:06.105Z,1021.12
2018-01-03T01:46:06.101Z,1021.13
2018-01-03T01:47:06.077Z,1021.07
2018-01-03T01:48:06.060Z,1021.01
2018-01-03T01:49:06.048Z,1021.01
2018-01-03T01:50:06.032Z,1020.92
2018-01-03T01:51:06.014Z,1020.87
2018-01-03T01:52:06.002Z,1020.86
2018-01-03T01:53:05.986Z,1020.8
2018-01-03T01:54:05.970Z,1020.8
2018-01-03T01:55:05.955Z,1020.75
2018-01-03T01:56:05.941Z,1020.73
2018-01-03T01:57:05.925Z,1020.73
2018-01-03T01:58:05.911Z,1020.69
2018-01-03T01:59:05.894Z,1020.69
2018-01-03T02:00:05.882Z,1020.62
2018-01-03T02:01:05.868Z,1020.53
2018-01-03T02:02:05.849Z,1020.48
2018-01-03T02:03:05.834Z,1020.46
2018-01-03T02:04:05.823Z,1020.4
2018-01-03T02:05:05.807Z,1020.33
2018-01-03T02:06:05.789Z,1020.29
2018-01-03T02:07:05.774Z,1020.2
2018-01-03T02:08:05.759Z,1020.17
2018-01-03T02:09:05.747Z,1020.11
2018-01-03T02:10:05.733Z,1020
2018-01-03T02:11:05.714Z,1019.94
2018-01-03T02:12:05.699Z,1019.88
2018-01-03T02:13:05.687Z,1019.8
2018-01-03T02:14:05.669Z,1019.76
2018-01-03T02:15:05.657Z,1019.68
2018-01-03T02:16:05.639Z,1019.6
2018-01-03T02:17:05.627Z,1019.56
2018-01-03T02:18:05.612Z,1019.47
2018-01-03T02:19:05.594Z,1019.44
2018-01-03T02:20:05.578Z,1019.39
2018-01-03T02:21:05.564Z,1019.34
2018-01-03T02:22:05.552Z,1019.3
2018-01-03T02:23:05.537Z,1019.28
2018-01-03T02:24:05.523Z,1019.19
2018-01-03T02:25:05.507Z,1019.14
2018-01-03T02:26:05.489Z,1019.13
2018-01-03T02:27:05.475Z,1019.08
2018-01-03T02:28:05.460Z,1019.02
2018-01-03T02:29:05.445Z,1018.95
2018-01-03T02:30:05.434Z,1018.86
2018-01-03T02:31:05.418Z,1018.84
2018-01-03T02:32:05.403Z,1018.75
2018-01-03T02:33:05.389Z,1018.71
2018-01-03T02:34:05.371Z,1018.63
2018-01-03T02:35:05.359Z,1018.59
2018-01-03T02:36:05.344Z,1018.46
2018-01-03T02:37:05.330Z,1018.41
2018-01-03T02:38:05.332Z,1018.32
2018-01-03T02:39:05.301Z,1018.25
2018-01-03T02:40:05.285Z,1018.17
2018-01-03T02:41:05.269Z,1018.15
2018-01-03T02:42:05.254Z,1018.08
2018-01-03T02:43:05.240Z,1018.01
2018-01-03T02:44:05.226Z,1017.98
2018-01-03T02:45:05.212Z,1017.83
2018-01-03T02:46:05.199Z,1017.76
2018-01-03T02:47:05.182Z,1017.71
2018-01-03T02:48:05.171Z,1017.66
2018-01-03T02:49:05.155Z,1017.61
2018-01-03T02:50:05.138Z,1017.48
2018-01-03T02:51:05.127Z,1017.46
2018-01-03T02:52:05.112Z,1017.38
2018-01-03T02:53:05.094Z,1017.38
2018-01-03T02:54:05.084Z,1017.26
2018-01-03T02:55:05.066Z,1017.17
2018-01-03T02:56:05.055Z,1017.17
2018-01-03T02:57:05.038Z,1017.14
2018-01-03T02:58:05.026Z,1017.09
2018-01-03T02:59:05.014Z,1017.07
2018-01-03T03:00:04.997Z,1016.99
2018-01-03T03:01:04.980Z,1016.95
2018-01-03T03:02:04.966Z,1016.9
2018-01-03T03:03:04.952Z,1016.83
2018-01-03T03:04:04.941Z,1016.72
2018-01-03T03:05:04.926Z,1016.61
2018-01-03T03:06:04.912Z,1016.64
2018-01-03T03:07:04.895Z,1016.56
2018-01-03T03:08:04.892Z,1016.46
2018-01-03T03:09:04.866Z,1016.41
2018-01-03T03:10:04.858Z,1016.34
2018-01-03T03:11:04.841Z,1016.29
2018-01-03T03:12:04.828Z,1016.22
2018-01-03T03:13:04.810Z,1016.2
2018-01-03T03:14:04.836Z,1016.2
2018-01-03T03:15:04.782Z,1016.14
2018-01-03T03:16:04.771Z,1016.1
2018-01-03T03:17:04.754Z,1016.09
2018-01-03T03:18:04.740Z,1016.02
2018-01-03T03:19:04.729Z,1016.03
2018-01-03T03:20:04.715Z,1016.04
2018-01-03T03:21:04.698Z,1015.92
2018-01-03T03:22:04.685Z,1015.91
2018-01-03T03:23:04.675Z,1015.8
2018-01-03T03:24:04.656Z,1015.74
2018-01-03T03:25:04.646Z,1015.66
2018-01-03T03:26:04.630Z,1015.64
2018-01-03T03:27:04.618Z,1015.6
2018-01-03T03:28:04.603Z,1015.55
2018-01-03T03:29:04.587Z,1015.5
2018-01-03T03:30:04.576Z,1015.42
2018-01-03T03:31:04.560Z,1015.38
2018-01-03T03:32:04.546Z,1015.3
2018-01-03T03:33:04.531Z,1015.26
2018-01-03T03:34:04.517Z,1015.2
2018-01-03T03:35:04.504Z,1015.08
2018-01-03T03:36:04.491Z,1014.99
2018-01-03T03:37:04.476Z,1014.99
2018-01-03T03:38:04.462Z,1014.96
2018-01-03T03:39:04.452Z,1014.97
2018-01-03T03:40:04.439Z,1014.92
2018-01-03T03:41:04.424Z,1014.93
2018-01-03T03:42:04.410Z,1014.93
2018-01-03T03:43:04.394Z,1014.92
2018-01-03T03:44:04.382Z,1014.87
2018-01-03T03:45:04.367Z,1014.88
2018-01-03T03:46:04.356Z,1014.79
2018-01-03T03:47:04.340Z,1014.76
2018-01-03T03:48:04.325Z,1014.68
2018-01-03T03:49:04.312Z,1014.71
2018-01-03T03:50:04.304Z,1014.58
2018-01-03T03:51:04.288Z,1014.56
2018-01-03T03:52:04.274Z,1014.52
2018-01-03T03:53:04.258Z,1014.42
2018-01-03T03:54:04.247Z,1014.37
2018-01-03T03:55:04.233Z,1014.27
2018-01-03T03:56:04.217Z,1014.2
2018-01-03T03:57:04.203Z,1014.17
2018-01-03T03:58:04.191Z,1014.2
2018-01-03T03:59:04.176Z,1014.09
2018-01-03T04:00:04.163Z,1014.08
2018-01-03T04:01:04.150Z,1014.02
2018-01-03T04:02:04.137Z,1013.94
2018-01-03T04:03:04.122Z,1013.9
2018-01-03T04:04:04.111Z,1013.84
2018-01-03T04:05:04.096Z,1013.79
2018-01-03T04:06:04.085Z,1013.79
2018-01-03T04:07:04.076Z,1013.74
2018-01-03T04:08:04.056Z,1013.71
2018-01-03T04:09:04.042Z,1013.71
2018-01-03T04:10:04.031Z,1013.64
2018-01-03T04:11:04.018Z,1013.6
2018-01-03T04:12:04.003Z,1013.52
2018-01-03T04:13:03.989Z,1013.51
2018-01-03T04:14:03.979Z,1013.42
2018-01-03T04:15:03.963Z,1013.32
2018-01-03T04:16:03.950Z,1013.26
2018-01-03T04:17:03.935Z,1013.23
2018-01-03T04:18:03.923Z,1013.16
2018-01-03T04:19:03.910Z,1013.07
2018-01-03T04:20:03.897Z,1013
2018-01-03T04:21:03.886Z,1012.95
2018-01-03T04:22:03.869Z,1012.9
2018-01-03T04:23:03.857Z,1012.81
2018-01-03T04:24:03.844Z,1012.76
2018-01-03T04:25:03.830Z,1012.7
2018-01-03T04:26:03.818Z,1012.65
2018-01-03T04:27:03.805Z,1012.64
2018-01-03T04:28:03.789Z,1012.62
2018-01-03T04:29:03.776Z,1012.58
2018-01-03T04:30:03.763Z,1012.58
2018-01-03T04:31:03.752Z,1012.47
2018-01-03T04:32:03.739Z,1012.42
2018-01-03T04:33:03.727Z,1012.4
2018-01-03T04:34:03.713Z,1012.28
2018-01-03T04:35:03.696Z,1012.16
2018-01-03T04:36:03.686Z,1012.13
2018-01-03T04:37:03.673Z,1012.06
2018-01-03T04:38:03.658Z,1012.02
2018-01-03T04:39:03.646Z,1011.95
2018-01-03T04:40:03.634Z,1011.95
2018-01-03T04:41:03.617Z,1011.92
2018-01-03T04:42:03.626Z,1011.84
2018-01-03T04:43:03.591Z,1011.84
2018-01-03T04:44:03.578Z,1011.83
2018-01-03T04:45:03.568Z,1011.83
2018-01-03T04:46:03.550Z,1011.82
2018-01-03T04:47:03.541Z,1011.85
2018-01-03T04:48:03.525Z,1011.83
2018-01-03T04:49:03.511Z,1011.78
2018-01-03T04:50:03.497Z,1011.76
2018-01-03T04:51:03.485Z,1011.76
2018-01-03T04:52:03.475Z,1011.72
2018-01-03T04:53:03.462Z,1011.72
2018-01-03T04:54:03.444Z,1011.68
2018-01-03T04:55:03.432Z,1011.59
2018-01-03T04:56:03.419Z,1011.48
2018-01-03T04:57:03.425Z,1011.41
2018-01-03T04:58:03.395Z,1011.36
2018-01-03T04:59:03.380Z,1011.26
2018-01-03T05:00:03.366Z,1011.2
2018-01-03T05:01:03.355Z,1011.1
2018-01-03T05:02:03.339Z,1011.03
2018-01-03T05:03:03.325Z,1010.91
2018-01-03T05:04:03.313Z,1010.79
2018-01-03T05:05:03.299Z,1010.65
2018-01-03T05:06:03.285Z,1010.6
2018-01-03T05:07:03.273Z,1010.52
2018-01-03T05:08:03.260Z,1010.47
2018-01-03T05:09:03.245Z,1010.42
2018-01-03T05:10:03.232Z,1010.42
2018-01-03T05:11:03.221Z,1010.45
2018-01-03T05:12:03.208Z,1010.51
2018-01-03T05:13:03.192Z,1010.57
2018-01-03T05:14:03.179Z,1010.64
2018-01-03T05:15:03.168Z,1010.66
2018-01-03T05:16:03.153Z,1010.62
2018-01-03T05:17:03.142Z,1010.52
2018-01-03T05:18:03.125Z,1010.54
2018-01-03T05:19:03.111Z,1010.47
2018-01-03T05:20:03.100Z,1010.43
2018-01-03T05:21:03.087Z,1010.41
2018-01-03T05:22:03.072Z,1010.36
2018-01-03T05:23:03.057Z,1010.32
2018-01-03T05:24:03.047Z,1010.25
2018-01-03T05:25:03.034Z,1010.14
2018-01-03T05:26:03.020Z,1010.08
2018-01-03T05:27:03.003Z,1010.08
2018-01-03T05:28:02.990Z,1009.99
2018-01-03T05:29:02.979Z,1009.85
2018-01-03T05:30:02.969Z,1009.87
2018-01-03T05:31:02.949Z,1009.85
2018-01-03T05:32:02.938Z,1009.83
2018-01-03T05:33:02.923Z,1009.79
2018-01-03T05:34:02.909Z,1009.78
2018-01-03T05:35:02.895Z,1009.72
2018-01-03T05:36:02.882Z,1009.66
2018-01-03T05:37:02.869Z,1009.72
2018-01-03T05:38:02.857Z,1009.64
2018-01-03T05:39:02.844Z,1009.66
2018-01-03T05:40:02.830Z,1009.62
2018-01-03T05:41:02.813Z,1009.62
2018-01-03T05:42:02.802Z,1009.62
2018-01-03T05:43:02.789Z,1009.52
2018-01-03T05:44:02.779Z,1009.43
2018-01-03T05:45:02.759Z,1009.4
2018-01-03T05:46:02.749Z,1009.4
2018-01-03T05:47:02.734Z,1009.42
2018-01-03T05:48:02.719Z,1009.38
2018-01-03T05:49:02.711Z,1009.32
2018-01-03T05:50:02.698Z,1009.26
2018-01-03T05:51:02.679Z,1009.14
2018-01-03T05:52:02.665Z,1009.11
2018-01-03T05:53:02.652Z,1009.1
2018-01-03T05:54:02.642Z,1009.1
2018-01-03T05:55:02.628Z,1009.06
2018-01-03T05:56:02.615Z,1009
2018-01-03T05:57:02.601Z,1008.92
2018-01-03T05:58:02.588Z,1008.87
2018-01-03T05:59:02.574Z,1008.85
2018-01-03T06:00:02.560Z,1008.8
2018-01-03T06:01:02.544Z,1008.73
2018-01-03T06:02:02.540Z,1008.71
2018-01-03T06:03:02.516Z,1008.58
2018-01-03T06:04:02.503Z,1008.51
2018-01-03T06:05:02.493Z,1008.5
2018-01-03T06:06:02.478Z,1008.53
2018-01-03T06:07:02.465Z,1008.54
2018-01-03T06:08:02.449Z,1008.55
2018-01-03T06:09:02.438Z,1008.52
2018-01-03T06:10:02.421Z,1008.44
2018-01-03T06:11:02.408Z,1008.41
2018-01-03T06:12:02.397Z,1008.43
2018-01-03T06:13:02.384Z,1008.42
2018-01-03T06:14:02.369Z,1008.36
2018-01-03T06:15:02.359Z,1008.38
2018-01-03T06:16:02.340Z,1008.38
2018-01-03T06:17:02.327Z,1008.36
2018-01-03T06:18:02.316Z,1008.3
2018-01-03T06:19:02.301Z,1008.29
2018-01-03T06:20:02.297Z,1008.09
2018-01-03T06:21:02.273Z,1008.11
2018-01-03T06:22:02.264Z,1008.01
2018-01-03T06:23:02.245Z,1007.84
2018-01-03T06:24:02.232Z,1007.86
2018-01-03T06:25:02.218Z,1007.78
2018-01-03T06:26:02.204Z,1007.77
2018-01-03T06:27:02.195Z,1007.61
2018-01-03T06:28:02.178Z,1007.49
2018-01-03T06:29:02.163Z,1007.4
2018-01-03T06:30:02.158Z,1007.39
2018-01-03T06:31:02.140Z,1007.29
2018-01-03T06:32:02.122Z,1007.25
2018-01-03T06:33:02.112Z,1007.23
2018-01-03T06:34:02.098Z,1007.11
2018-01-03T06:35:02.083Z,1007.03
2018-01-03T06:36:02.068Z,1006.93
2018-01-03T06:37:02.055Z,1006.84
2018-01-03T06:38:02.045Z,1006.86
2018-01-03T06:39:02.029Z,1006.83
2018-01-03T06:40:02.017Z,1006.71
2018-01-03T06:41:02.008Z,1006.72
2018-01-03T06:42:01.987Z,1006.71
2018-01-03T06:43:01.978Z,1006.68
2018-01-03T06:44:01.960Z,1006.57
2018-01-03T06:45:01.947Z,1006.61
2018-01-03T06:46:01.933Z,1006.57
2018-01-03T06:47:01.924Z,1006.56
2018-01-03T06:48:01.908Z,1006.51
2018-01-03T06:49:01.892Z,1006.5
2018-01-03T06:50:01.879Z,1006.44
2018-01-03T06:51:01.864Z,1006.38
2018-01-03T06:52:01.857Z,1006.23
2018-01-03T06:53:01.841Z,1006.24
2018-01-03T06:54:01.827Z,1006.25
2018-01-03T06:55:01.812Z,1006.22
2018-01-03T06:56:01.798Z,1006.2
2018-01-03T06:57:01.784Z,1006.13
2018-01-03T06:58:01.769Z,1006.07
2018-01-03T06:59:01.756Z,1006.05
2018-01-03T07:00:01.752Z,1006.03
2018-01-03T07:01:01.729Z,1005.9
2018-01-03T07:02:01.721Z,1005.83
2018-01-03T07:03:01.702Z,1005.79
2018-01-03T07:04:01.692Z,1005.72
2018-01-03T07:05:01.677Z,1005.64
2018-01-03T07:06:01.665Z,1005.51
2018-01-03T07:07:01.651Z,1005.47
2018-01-03T07:08:01.644Z,1005.37
2018-01-03T07:09:01.624Z,1005.31
2018-01-03T07:10:01.607Z,1005.26
2018-01-03T07:11:01.597Z,1005.2
2018-01-03T07:12:01.583Z,1005.16
2018-01-03T07:13:01.566Z,1005.01
2018-01-03T07:14:01.553Z,1005.01
2018-01-03T07:15:01.541Z,1005.01
2018-01-03T07:16:01.526Z,1004.94
2018-01-03T07:17:01.515Z,1004.9
2018-01-03T07:18:01.499Z,1004.96
2018-01-03T07:19:01.485Z,1004.83
2018-01-03T07:20:01.475Z,1004.78
2018-01-03T07:21:01.458Z,1004.79
2018-01-03T07:22:01.451Z,1004.69
2018-01-03T07:23:01.431Z,1004.71
2018-01-03T07:24:01.422Z,1004.7
2018-01-03T07:25:01.405Z,1004.64
2018-01-03T07:26:01.394Z,1004.54
2018-01-03T07:27:01.377Z,1004.61
2018-01-03T07:28:01.364Z,1004.55
2018-01-03T07:29:01.353Z,1004.54
2018-01-03T07:30:01.341Z,1004.49
2018-01-03T07:31:01.324Z,1004.37
2018-01-03T07:32:01.312Z,1004.28
2018-01-03T07:33:01.297Z,1004.19
2018-01-03T07:34:01.283Z,1004.21
2018-01-03T07:35:01.269Z,1004.05
2018-01-03T07:36:01.259Z,1004.14
2018-01-03T07:37:01.246Z,1004.17
2018-01-03T07:38:01.229Z,1004.04
2018-01-03T07:39:01.216Z,1004.04
2018-01-03T07:40:01.249Z,1004.12
2018-01-03T07:41:01.189Z,1004.08
2018-01-03T07:42:01.175Z,1003.99
2018-01-03T07:43:01.165Z,1003.99
2018-01-03T07:44:01.148Z,1004.03
2018-01-03T07:45:01.134Z,1004.02
2018-01-03T07:46:01.121Z,1004.06
2018-01-03T07:47:01.108Z,1004
2018-01-03T07:48:01.096Z,1003.86
2018-01-03T07:49:01.081Z,1003.84
2018-01-03T07:50:01.067Z,1003.84
2018-01-03T07:51:01.054Z,1003.86
2018-01-03T07:52:01.042Z,1003.8
2018-01-03T07:53:01.027Z,1003.8
2018-01-03T07:54:01.013Z,1003.74
2018-01-03T07:55:01.001Z,1003.75
2018-01-03T07:56:00.987Z,1003.62
2018-01-03T07:57:00.973Z,1003.67
2018-01-03T07:58:00.963Z,1003.54
2018-01-03T07:59:00.950Z,1003.61
2018-01-03T08:00:00.933Z,1003.53
2018-01-03T08:01:00.923Z,1003.45
2018-01-03T08:02:00.910Z,1003.42
2018-01-03T08:03:00.893Z,1003.43
2018-01-03T08:04:00.879Z,1003.34
2018-01-03T08:05:00.866Z,1003.3
2018-01-03T08:06:00.856Z,1003.28
2018-01-03T08:07:00.839Z,1003.22
2018-01-03T08:08:00.825Z,1003.13
2018-01-03T08:09:00.814Z,1003.16
2018-01-03T08:10:00.801Z,1003.15
2018-01-03T08:11:00.785Z,1003.02
2018-01-03T08:12:00.774Z,1002.95
2018-01-03T08:13:00.759Z,1002.91
2018-01-03T08:14:00.745Z,1002.85
2018-01-03T08:15:00.731Z,1002.71
2018-01-03T08:16:00.718Z,1002.7
2018-01-03T08:17:00.705Z,1002.56
2018-01-03T08:18:00.691Z,1002.49
2018-01-03T08:19:00.679Z,1002.35
2018-01-03T08:20:00.666Z,1002.28
2018-01-03T08:21:00.653Z,1002.24
2018-01-03T08:22:00.641Z,1002.16
2018-01-03T08:23:00.628Z,1002.05
2018-01-03T08:24:00.612Z,1001.95
2018-01-03T08:25:00.598Z,1001.86
2018-01-03T08:26:00.585Z,1001.89
2018-01-03T08:27:00.577Z,1001.81
2018-01-03T08:28:00.562Z,1001.97
2018-01-03T08:29:00.547Z,1002.03
2018-01-03T08:30:00.534Z,1002.07
2018-01-03T08:31:00.549Z,1002
2018-01-03T08:32:00.507Z,1001.95
2018-01-03T08:33:00.500Z,1001.88
2018-01-03T08:34:00.478Z,1001.68
2018-01-03T08:35:00.465Z,1001.53
2018-01-03T08:36:00.452Z,1001.52
2018-01-03T08:37:00.441Z,1001.56
2018-01-03T08:38:00.426Z,1001.53
2018-01-03T08:39:00.412Z,1001.44
2018-01-03T08:40:00.401Z,1001.29
2018-01-03T08:41:00.385Z,1001.18
2018-01-03T08:42:00.376Z,1001.16
2018-01-03T08:43:00.359Z,1001.05
2018-01-03T08:44:00.345Z,1000.95
2018-01-03T08:45:00.336Z,1000.85
2018-01-03T08:46:00.320Z,1000.71
2018-01-03T08:47:00.310Z,1000.79
2018-01-03T08:48:00.296Z,1000.75
2018-01-03T08:49:00.290Z,1000.95
2018-01-03T08:50:00.267Z,1001.11
2018-01-03T08:51:00.253Z,1001.26
2018-01-03T08:52:00.240Z,1001.17
2018-01-03T08:53:00.227Z,1001.11
2018-01-03T08:54:00.217Z,1000.88
2018-01-03T08:55:00.200Z,1000.92
2018-01-03T08:56:00.194Z,1000.75
2018-01-03T08:57:00.175Z,1000.67
2018-01-03T08:58:00.170Z,1000.69
2018-01-03T08:59:00.151Z,1000.74
2018-01-03T09:00:00.140Z,1000.66
2018-01-03T09:01:00.126Z,1000.6
2018-01-03T09:02:00.111Z,1000.55
2018-01-03T09:03:00.102Z,1000.59
2018-01-03T09:04:00.090Z,1000.59
2018-01-03T09:05:00.084Z,1000.53
2018-01-03T09:06:00.060Z,1000.33
2018-01-03T09:07:00.046Z,1000.44
2018-01-03T09:08:00.039Z,1000.46
2018-01-03T09:09:00.021Z,1000.41
2018-01-03T09:10:00.012Z,1000.52
2018-01-03T09:10:59.995Z,1000.51
2018-01-03T09:11:59.983Z,1000.47
2018-01-03T09:12:59.974Z,1000.5
2018-01-03T09:13:59.957Z,1000.38
2018-01-03T09:14:59.942Z,1000.53
2018-01-03T09:15:59.931Z,1000.52
2018-01-03T09:16:59.913Z,1000.54
2018-01-03T09:17:59.900Z,1000.52
2018-01-03T09:18:59.903Z,1000.53
2018-01-03T09:19:59.874Z,1000.59
2018-01-03T09:20:59.873Z,1000.45
2018-01-03T09:21:59.851Z,1000.46
2018-01-03T09:22:59.839Z,1000.51
2018-01-03T09:23:59.822Z,1000.41
2018-01-03T09:24:59.812Z,1000.43
2018-01-03T09:25:59.798Z,1000.42
2018-01-03T09:26:59.788Z,1000.41
2018-01-03T09:27:59.774Z,1000.43
2018-01-03T09:28:59.761Z,1000.36
2018-01-03T09:29:59.752Z,1000.38
2018-01-03T09:30:59.793Z,1000.28
2018-01-03T09:31:59.728Z,1000.27
2018-01-03T09:32:59.722Z,1000.25
2018-01-03T09:33:59.704Z,1000.19
2018-01-03T09:34:59.693Z,1000.18
2018-01-03T09:35:59.668Z,1000.13
2018-01-03T09:36:59.662Z,1000.17
2018-01-03T09:37:59.647Z,1000.2
2018-01-03T09:38:59.637Z,1000.24
2018-01-03T09:39:59.617Z,1000.26
2018-01-03T09:40:59.606Z,1000.15
2018-01-03T09:41:59.625Z,1000.2
2018-01-03T09:42:59.582Z,1000.1
2018-01-03T09:43:59.570Z,1000.12
2018-01-03T09:44:59.557Z,1000.07
2018-01-03T09:45:59.544Z,999.96
2018-01-03T09:46:59.530Z,1000.1
2018-01-03T09:47:59.519Z,999.95
2018-01-03T09:48:59.512Z,999.99
2018-01-03T09:49:59.492Z,999.95
2018-01-03T09:50:59.485Z,999.99
2018-01-03T09:51:59.472Z,999.92
2018-01-03T09:52:59.453Z,999.9
2018-01-03T09:53:59.440Z,999.84
2018-01-03T09:54:59.429Z,999.87
2018-01-03T09:55:59.417Z,999.78
2018-01-03T09:56:59.409Z,999.77
2018-01-03T09:57:59.707Z,999.74
2018-01-03T09:58:59.378Z,999.73
2018-01-03T09:59:59.365Z,999.72
2018-01-03T10:00:59.352Z,999.77
2018-01-03T10:01:59.344Z,999.69
2018-01-03T10:02:59.547Z,999.63
2018-01-03T10:03:59.323Z,999.49
2018-01-03T10:04:59.313Z,999.39
2018-01-03T10:05:59.291Z,999.41
2018-01-03T10:06:59.289Z,999.28
2018-01-03T10:07:59.267Z,999.27
2018-01-03T10:08:59.261Z,999.28
2018-01-03T10:09:59.245Z,999.33
2018-01-03T10:10:59.246Z,999.37
2018-01-03T10:11:59.219Z,999.52
2018-01-03T10:12:59.205Z,999.58
2018-01-03T10:13:59.195Z,999.59
2018-01-03T10:14:59.184Z,999.55
2018-01-03T10:15:59.170Z,999.52
2018-01-03T10:16:59.170Z,999.45
2018-01-03T10:17:59.150Z,999.46
2018-01-03T10:18:59.135Z,999.44
2018-01-03T10:19:59.119Z,999.46
2018-01-03T10:20:59.125Z,999.41
2018-01-03T10:21:59.095Z,999.4
2018-01-03T10:22:59.084Z,999.4
2018-01-03T10:23:59.072Z,999.47
2018-01-03T10:24:59.058Z,999.55
2018-01-03T10:25:59.049Z,999.48
2018-01-03T10:26:59.035Z,999.48
2018-01-03T10:27:59.026Z,999.38
2018-01-03T10:28:59.012Z,999.37
2018-01-03T10:29:59.002Z,999.37
2018-01-03T10:30:58.986Z,999.32
2018-01-03T10:31:58.976Z,999.25
2018-01-03T10:32:58.963Z,999.19
2018-01-03T10:33:58.952Z,999.19
2018-01-03T10:34:58.941Z,999.18
2018-01-03T10:35:58.928Z,999.1
2018-01-03T10:36:58.918Z,999.15
2018-01-03T10:37:58.907Z,999.13
2018-01-03T10:38:58.893Z,999.2
2018-01-03T10:39:58.891Z,999.18
2018-01-03T10:40:58.879Z,999.14
2018-01-03T10:41:58.869Z,999.13
2018-01-03T10:42:58.848Z,999.19
2018-01-03T10:43:58.834Z,999.21
2018-01-03T10:44:58.824Z,999.24
2018-01-03T10:45:58.813Z,999.22
2018-01-03T10:46:58.802Z,999.28
2018-01-03T10:47:58.790Z,999.26
2018-01-03T10:48:58.779Z,999.28
2018-01-03T10:49:58.767Z,999.27
2018-01-03T10:50:58.761Z,999.22
2018-01-03T10:51:58.750Z,999.2
2018-01-03T10:52:58.732Z,999.17
2018-01-03T10:53:58.717Z,999.16
2018-01-03T10:54:58.925Z,999.12
2018-01-03T10:55:58.708Z,999.09
2018-01-03T10:56:58.686Z,999.11
2018-01-03T10:57:58.671Z,999.1
2018-01-03T10:58:58.663Z,998.89
2018-01-03T10:59:58.647Z,999.01
2018-01-03T11:00:58.643Z,998.99
2018-01-03T11:01:58.628Z,998.98
2018-01-03T11:02:58.635Z,998.92
2018-01-03T11:03:58.603Z,998.83
2018-01-03T11:04:58.592Z,998.78
2018-01-03T11:05:58.581Z,998.69
2018-01-03T11:06:58.568Z,998.42
2018-01-03T11:07:58.556Z,998.38
2018-01-03T11:08:58.547Z,998.36
2018-01-03T11:09:58.537Z,998.42
2018-01-03T11:10:58.557Z,998.44
2018-01-03T11:11:58.512Z,998.51
2018-01-03T11:12:58.498Z,998.55
2018-01-03T11:13:58.489Z,998.51
2018-01-03T11:14:58.478Z,998.46
2018-01-03T11:15:58.466Z,998.34
2018-01-03T11:16:58.452Z,998.3
2018-01-03T11:17:58.462Z,998.24
2018-01-03T11:18:58.433Z,998.18
2018-01-03T11:19:58.419Z,998.09
2018-01-03T11:20:58.406Z,998
2018-01-03T11:21:58.410Z,997.94
2018-01-03T11:22:58.393Z,997.92
2018-01-03T11:23:58.374Z,997.8
2018-01-03T11:24:58.365Z,997.67
2018-01-03T11:25:58.354Z,997.61
2018-01-03T11:26:58.341Z,997.54
2018-01-03T11:27:58.339Z,997.49
2018-01-03T11:28:58.321Z,997.47
2018-01-03T11:29:58.313Z,997.43
2018-01-03T11:30:58.296Z,997.38
2018-01-03T11:31:58.288Z,997.37
2018-01-03T11:32:58.292Z,997.38
2018-01-03T11:33:58.279Z,997.37
2018-01-03T11:34:58.258Z,997.35
2018-01-03T11:35:58.245Z,997.36
2018-01-03T11:36:58.232Z,997.25
2018-01-03T11:37:58.224Z,997.22
2018-01-03T11:38:58.211Z,997.22
2018-01-03T11:39:58.204Z,997.27
2018-01-03T11:40:58.201Z,997.25
2018-01-03T11:41:58.196Z,997.14
2018-01-03T11:42:58.172Z,997.11
2018-01-03T11:43:58.159Z,997.04
2018-01-03T11:44:58.182Z,997.04
2018-01-03T11:45:58.144Z,997.02
2018-01-03T11:46:58.135Z,997.03
2018-01-03T11:47:58.126Z,997.07
2018-01-03T11:48:58.111Z,997.16
2018-01-03T11:49:58.098Z,997.2
2018-01-03T11:50:58.090Z,997.19
2018-01-03T11:51:58.097Z,997.16
2018-01-03T11:52:58.069Z,997.13
2018-01-03T11:53:58.059Z,997.11
2018-01-03T11:54:58.054Z,997.12
2018-01-03T11:55:58.049Z,996.99
2018-01-03T11:56:58.030Z,996.99
2018-01-03T11:57:58.017Z,996.94
2018-01-03T11:58:58.009Z,996.98
2018-01-03T11:59:57.999Z,996.92
2018-01-03T12:00:57.987Z,996.94
2018-01-03T12:01:57.993Z,996.95
2018-01-03T12:02:57.973Z,996.91
2018-01-03T12:03:57.964Z,996.94
2018-01-03T12:04:57.959Z,997.02
2018-01-03T12:05:57.943Z,997.06
2018-01-03T12:06:57.943Z,997.22
2018-01-03T12:07:57.930Z,997.15
2018-01-03T12:08:57.919Z,997.12
2018-01-03T12:09:57.911Z,997.24
2018-01-03T12:10:57.896Z,997.23
2018-01-03T12:11:57.884Z,997.27